Time;durP1;ratioP1;P1;durP2;ratioP2;P2;SDS_P1;SDS_P2;PMS_P1;PMS_P2;Temp;Humidity;BMP_temperature;BMP_pressure;BME280_temperature;BME280_humidity;BME280_pressure;Samples;Min_cycle;Max_cycle;Signal;HPM_P1;HPM_P2
2021/01/23 03:24:03;;;;;;;;;;;;;;;;;;;;;
2021/01/23 03:44:18;;;;;;;3.43;1.80;;;;;;;13.09;56.97;98591.41;5220170;27;20241;-81
2021/01/23 03:46:59;;;;;;;4.03;1.62;;;;;;;12.90;57.44;98585.22;5257416;27;20071;-81
2021/01/23 03:49:25;;;;;;;4.87;2.10;;;;;;;12.80;57.63;98581.28;5287699;27;20065;-81
2021/01/23 03:51:52;;;;;;;3.25;1.75;;;;;;;12.85;57.28;98582.81;5278586;27;20065;-82
2021/01/23 05:25:35;;;;;;;4.53;2.08;;;;;;;11.68;60.75;98539.41;5313196;27;20106;-80
2021/01/23 05:28:05;;;;;;;4.85;2.40;;;;;;;11.64;61.43;98543.06;5319773;27;20071;-82
2021/01/23 05:30:39;;;;;;;4.55;2.22;;;;;;;11.22;62.09;98548.22;5299911;27;20131;-83
2021/01/23 05:33:17;;;;;;;3.97;2.10;;;;;;;11.47;61.63;98542.84;5310482;27;20454;-82
2021/01/23 05:35:55;;;;;;;5.20;2.33;;;;;;;11.31;62.08;98553.13;5300501;27;20119;-83
2021/01/23 05:38:23;;;;;;;6.03;2.00;;;;;;;11.76;60.34;98553.06;5319796;27;20151;-82
2021/01/23 05:40:55;;;;;;;4.87;2.28;;;;;;;11.39;61.91;98571.25;5319959;27;20057;-82
2021/01/23 05:43:30;;;;;;;4.53;2.08;;;;;;;11.69;61.32;98579.72;5319927;27;20112;-82
2021/01/23 05:45:57;;;;;;;5.97;2.17;;;;;;;11.83;60.85;98599.28;5319385;27;20112;-82
2021/01/23 05:48:24;;;;;;;6.22;1.70;;;;;;;11.80;60.65;98604.69;5319624;27;20064;-82
2021/01/23 05:50:51;;;;;;;8.48;2.67;;;;;;;11.91;60.31;98609.56;5319810;27;20103;-82
2021/01/23 05:53:18;;;;;;;5.05;2.42;;;;;;;12.05;59.78;98614.25;5320012;27;20116;-83
2021/01/23 05:55:45;;;;;;;3.37;1.70;;;;;;;12.01;59.73;98620.56;5319632;27;20107;-83
2021/01/23 05:58:11;;;;;;;6.20;2.37;;;;;;;12.20;59.12;98623.31;5319570;27;20093;-82
2021/01/23 06:25:12;;;;;;;3.20;1.60;;;;;;;11.11;64.70;98680.03;5353580;26;20131;-81
2021/01/23 06:27:47;;;;;;;2.33;1.37;;;;;;;10.97;66.12;98685.78;5344193;26;20064;-81
2021/01/23 07:27:09;;;;;;;1.08;0.50;;;;;;;10.38;71.04;98641.38;5346483;26;20515;-81
2021/01/23 07:29:50;;;;;;;1.83;0.70;;;;;;;10.34;71.47;98637.13;5375916;26;20078;-83
2021/01/23 08:03:42;;;;;;;3.97;0.40;;;;;;;10.56;71.60;98634.63;5313363;26;20079;-79
2021/01/23 08:13:11;;;;;;;2.00;0.65;;;;;;;11.58;68.80;98614.31;5365467;26;20508;-80
2021/01/23 08:15:49;;;;;;;2.25;0.85;;;;;;;11.77;67.90;98604.81;5363533;26;20080;-82
2021/01/23 08:18:48;;;;;;;;;;;;;;;;;;;;;
2021/01/23 08:25:21;;;;;;;1.03;0.40;;;;;;;11.49;67.94;98612.88;5380084;26;20066;-82
2021/01/23 08:27:47;;;;;;;2.85;0.65;;;;;;;11.53;68.07;98629.41;5363536;26;20360;-80
2021/01/23 08:33:36;;;;;;;0.52;0.30;;;;;;;11.03;69.04;98633.00;5379704;26;20112;-81
2021/01/23 08:36:32;;;;;;;0.55;0.30;;;;;;;11.21;68.77;98635.88;5363924;26;20402;-83
2021/01/23 08:39:10;;;;;;;3.55;0.75;;;;;;;11.30;68.47;98639.03;5363339;26;20723;-80
2021/01/23 08:42:18;;;;;;;1.85;0.47;;;;;;;11.62;67.75;98639.59;5362953;26;20101;-81
2021/01/23 08:45:22;;;;;;;3.90;1.00;;;;;;;11.35;68.87;98655.50;5322303;26;20428;-80
2021/01/23 08:50:57;;;;;;;0.60;0.30;;;;;;;11.33;69.52;98659.94;5293396;26;20083;-80
2021/01/23 08:57:46;;;;;;;1.30;0.70;;;;;;;11.96;66.81;98643.59;5371709;26;20451;-80
2021/01/23 09:04:27;;;;;;;1.33;0.40;;;;;;;11.37;68.21;98653.66;5287974;26;20072;-79
2021/01/23 09:18:09;;;;;;;2.85;0.62;;;;;;;11.97;66.64;98655.81;5341987;26;20421;-82
2021/01/23 09:24:01;;;;;;;0.57;0.30;;;;;;;11.63;68.27;98664.97;5269150;27;20057;-78
2021/01/23 09:26:27;;;;;;;1.10;0.60;;;;;;;11.50;68.98;98677.75;5297577;27;20325;-79
2021/01/23 09:28:54;;;;;;;1.90;0.35;;;;;;;11.51;69.10;98674.19;5297941;27;20085;-78
2021/01/23 09:31:20;;;;;;;2.35;0.70;;;;;;;11.65;68.76;98681.56;5297864;27;20168;-78
2021/01/23 09:33:48;;;;;;;1.08;0.40;;;;;;;11.85;68.22;98682.56;5297671;27;20077;-78
2021/01/23 09:36:14;;;;;;;1.90;0.80;;;;;;;11.90;68.30;98686.78;5297496;27;20096;-78
2021/01/23 09:38:40;;;;;;;1.15;0.50;;;;;;;12.31;67.17;98686.09;5297935;27;20125;-78
2021/01/23 09:41:07;;;;;;;1.60;0.60;;;;;;;12.49;66.53;98688.81;5298047;27;20081;-80
2021/01/23 09:43:33;;;;;;;3.42;0.50;;;;;;;12.39;67.43;98692.75;5297448;27;20056;-79
2021/01/23 09:46:00;;;;;;;0.50;0.30;;;;;;;12.33;67.76;98702.69;5278325;27;20132;-78
2021/01/23 09:48:26;;;;;;;2.55;0.73;;;;;;;12.26;67.47;98691.53;5298040;27;20088;-78
2021/01/23 09:50:53;;;;;;;1.95;0.30;;;;;;;11.91;69.05;98688.53;5297630;27;20441;-79
2021/01/23 09:53:20;;;;;;;0.80;0.40;;;;;;;12.07;69.07;98687.91;5296048;27;20037;-79
2021/01/23 09:55:46;;;;;;;2.55;0.80;;;;;;;11.98;69.05;98686.50;5297533;27;20049;-78
2021/01/23 09:58:13;;;;;;;8.10;0.95;;;;;;;12.09;69.06;98689.56;5297724;27;20132;-78
2021/01/23 10:01:17;;;;;;;2.80;0.80;;;;;;;12.34;68.22;98689.44;5297563;27;20077;-80
2021/01/23 10:03:44;;;;;;;1.20;0.70;;;;;;;12.40;68.43;98691.84;5296597;27;20053;-79
2021/01/23 10:06:29;;;;;;;1.45;0.90;;;;;;;12.58;67.72;98687.59;5297956;27;20654;-82
2021/01/23 10:09:15;;;;;;;4.57;0.90;;;;;;;12.64;67.04;98694.38;5296562;27;20117;-80
2021/01/23 10:11:50;;;;;;;5.25;3.40;;;;;;;12.26;68.16;98694.16;5329132;26;20064;-79
2021/01/23 10:14:27;;;;;;;4.53;1.58;;;;;;;12.41;68.06;98697.94;5341923;26;20431;-80
2021/01/23 10:17:15;;;;;;;3.20;1.83;;;;;;;12.54;68.05;98700.97;5342355;26;20025;-79
2021/01/23 10:19:41;;;;;;;4.53;1.10;;;;;;;12.69;67.46;98697.69;5342263;26;20061;-79
2021/01/23 10:22:40;;;;;;;1.25;0.70;;;;;;;12.86;67.32;98697.00;5342844;26;20074;-81
2021/01/23 10:25:07;;;;;;;1.37;0.70;;;;;;;12.89;67.10;98696.88;5342871;26;20052;-80
2021/01/23 10:27:34;;;;;;;1.83;0.40;;;;;;;12.63;68.83;98690.91;5342780;26;20086;-79
2021/01/23 10:30:02;;;;;;;0.68;0.30;;;;;;;12.36;69.00;98686.75;5342848;26;20060;-79
2021/01/23 10:32:29;;;;;;;1.70;0.50;;;;;;;12.29;70.00;98680.88;5342693;26;20128;-79
2021/01/23 10:34:55;;;;;;;6.80;3.30;;;;;;;12.34;69.81;98678.06;5342535;26;20052;-81
2021/01/23 10:37:22;;;;;;;10.20;5.70;;;;;;;12.43;69.11;98675.91;5342818;26;20414;-79
2021/01/23 10:39:48;;;;;;;8.82;5.50;;;;;;;12.76;68.01;98674.56;5342668;26;20104;-79
2021/01/23 10:42:15;;;;;;;8.63;3.40;;;;;;;12.76;67.63;98672.78;5342511;26;20060;-80
2021/01/23 10:44:41;;;;;;;5.20;2.95;;;;;;;12.92;67.30;98671.22;5342622;26;20068;-80
2021/01/23 10:47:11;;;;;;;2.67;1.00;;;;;;;13.04;66.91;98655.81;5342413;26;20106;-79
2021/01/23 10:49:38;;;;;;;2.70;1.00;;;;;;;13.25;66.28;98664.56;5342731;26;20060;-79
2021/01/23 10:52:05;;;;;;;1.80;0.88;;;;;;;12.61;67.62;98662.91;5342652;26;20072;-80
2021/01/23 10:54:32;;;;;;;8.45;4.80;;;;;;;12.81;68.19;98662.91;5342853;26;20077;-79
2021/01/23 10:56:58;;;;;;;15.25;11.35;;;;;;;12.32;70.65;98664.09;5342767;26;20383;-79
2021/01/23 10:59:25;;;;;;;11.88;8.48;;;;;;;12.60;69.61;98685.75;5322640;26;20100;-80
2021/01/23 11:01:51;;;;;;;13.60;8.98;;;;;;;10.91;76.77;98692.09;5342615;26;20124;-79
2021/01/23 11:04:18;;;;;;;11.60;6.87;;;;;;;10.37;79.27;98679.03;5342593;26;20044;-82
2021/01/23 11:06:44;;;;;;;8.57;3.58;;;;;;;10.23;79.65;98675.06;5342609;26;20066;-79
2021/01/23 11:09:10;;;;;;;6.03;3.67;;;;;;;10.52;78.14;98678.53;5342619;26;20092;-79
2021/01/23 11:11:37;;;;;;;6.72;4.30;;;;;;;10.40;79.11;98676.31;5342342;26;20082;-79
2021/01/23 11:14:04;;;;;;;10.00;6.60;;;;;;;10.51;78.69;98676.81;5342337;26;20079;-79
2021/01/23 11:16:32;;;;;;;15.60;13.27;;;;;;;11.31;75.49;98669.66;5342709;26;20056;-79
2021/01/23 11:18:59;;;;;;;37.40;32.40;;;;;;;12.08;72.75;98648.34;5342350;26;20105;-82
2021/01/23 11:21:26;;;;;;;18.95;12.00;;;;;;;11.92;74.76;98634.09;5322616;26;20128;-79
2021/01/23 11:23:53;;;;;;;14.18;8.18;;;;;;;11.75;76.56;98642.63;5342298;26;20076;-79
2021/01/23 11:26:22;;;;;;;8.80;5.83;;;;;;;12.36;74.69;98640.22;5342491;26;20047;-79
2021/01/23 11:28:49;;;;;;;5.32;3.33;;;;;;;11.72;76.38;98635.69;5342506;26;20120;-80
2021/01/23 11:31:15;;;;;;;5.22;2.28;;;;;;;11.79;76.25;98641.56;5342283;26;20115;-79
2021/01/23 11:33:43;;;;;;;1.62;1.08;;;;;;;12.30;74.35;98626.44;5343477;26;20052;-80
2021/01/23 11:36:09;;;;;;;4.37;2.03;;;;;;;12.47;74.15;98616.03;5322662;26;20087;-79
2021/01/23 11:38:35;;;;;;;2.87;1.20;;;;;;;12.20;74.75;98612.78;5322447;26;20076;-80
2021/01/23 11:41:02;;;;;;;1.85;0.93;;;;;;;12.50;70.93;98610.69;5342254;26;20167;-81
2021/01/23 11:43:29;;;;;;;4.40;1.20;;;;;;;11.64;74.32;98613.22;5322798;26;20052;-79
2021/01/23 11:45:55;;;;;;;1.55;0.73;;;;;;;11.54;74.38;98607.47;5342220;26;20105;-80
2021/01/23 11:48:22;;;;;;;2.65;1.00;;;;;;;11.60;74.74;98610.72;5342340;26;20104;-80
2021/01/23 11:50:48;;;;;;;1.52;1.00;;;;;;;12.00;72.90;98598.66;5342605;26;20071;-79
2021/01/23 11:53:14;;;;;;;1.90;0.90;;;;;;;11.81;73.54;98600.28;5342656;26;20063;-79
2021/01/23 11:55:42;;;;;;;2.65;1.20;;;;;;;12.13;72.94;98611.31;5322832;26;20053;-80
2021/01/23 11:58:08;;;;;;;6.57;2.50;;;;;;;12.00;74.15;98574.09;5342406;26;20067;-79
2021/01/23 12:00:35;;;;;;;5.30;2.28;;;;;;;10.87;79.15;98543.34;5342493;26;20075;-80
2021/01/23 12:03:03;;;;;;;3.55;1.85;;;;;;;11.55;76.62;98588.12;5341651;26;20049;-80
2021/01/23 12:05:32;;;;;;;3.78;1.60;;;;;;;12.14;73.96;98581.44;5342257;26;20441;-80
2021/01/23 12:07:58;;;;;;;4.57;1.10;;;;;;;11.99;75.40;98567.13;5342281;26;20061;-80
2021/01/23 12:10:25;;;;;;;4.00;1.20;;;;;;;11.99;74.57;98572.41;5342820;26;20076;-80
2021/01/23 12:12:52;;;;;;;2.97;1.50;;;;;;;11.66;75.17;98585.09;5342727;26;20066;-80
2021/01/23 12:15:18;;;;;;;2.83;1.40;;;;;;;11.78;76.41;98574.09;5342213;26;20048;-79
2021/01/23 12:17:45;;;;;;;3.80;1.77;;;;;;;12.13;73.01;98577.94;5342422;26;20707;-79
2021/01/23 12:20:12;;;;;;;3.67;1.90;;;;;;;12.17;73.62;98570.78;5342661;26;20082;-79
2021/01/23 12:22:38;;;;;;;2.75;1.30;;;;;;;12.56;71.56;98562.09;5342603;26;20059;-79
2021/01/23 12:25:07;;;;;;;2.55;1.08;;;;;;;12.71;72.97;98561.47;5342586;26;21010;-80
2021/01/23 12:27:36;;;;;;;2.92;1.08;;;;;;;12.58;71.74;98560.28;5342688;26;20119;-79
2021/01/23 12:30:08;;;;;;;3.30;1.17;;;;;;;12.16;73.39;98564.66;5342574;26;20091;-80
2021/01/23 12:32:35;;;;;;;2.03;0.85;;;;;;;12.07;73.72;98564.19;5342484;26;20067;-79
2021/01/23 12:35:04;;;;;;;0.88;0.68;;;;;;;12.27;71.94;98567.72;5322505;26;20113;-81
2021/01/23 12:37:30;;;;;;;2.10;1.08;;;;;;;12.47;72.04;98568.63;5342587;26;20078;-79
2021/01/23 12:40:00;;;;;;;1.75;0.95;;;;;;;12.59;70.04;98562.84;5323152;26;20072;-80
2021/01/23 12:42:27;;;;;;;2.42;1.27;;;;;;;12.82;69.84;98555.72;5341885;26;20068;-80
2021/01/23 12:44:55;;;;;;;1.58;1.17;;;;;;;12.04;72.28;98559.91;5341980;26;20059;-81
2021/01/23 12:47:21;;;;;;;3.67;0.95;;;;;;;12.52;71.86;98542.97;5342227;26;20095;-79
2021/01/23 12:49:48;;;;;;;2.53;0.90;;;;;;;12.77;69.51;98548.03;5342301;26;20096;-81
2021/01/23 12:52:14;;;;;;;3.12;1.27;;;;;;;12.70;70.66;98543.94;5342521;26;20072;-79
2021/01/23 12:54:40;;;;;;;4.82;1.50;;;;;;;12.95;68.56;98547.19;5342390;26;20074;-80
2021/01/23 12:57:07;;;;;;;2.42;1.20;;;;;;;12.86;69.11;98544.97;5342108;26;20124;-79
2021/01/23 12:59:34;;;;;;;2.00;1.02;;;;;;;12.66;70.85;98532.69;5342317;26;20120;-80
2021/01/23 13:02:01;;;;;;;1.87;1.12;;;;;;;13.00;68.34;98535.56;5342444;26;20088;-79
2021/01/23 13:04:27;;;;;;;4.62;1.52;;;;;;;12.92;67.61;98531.53;5342018;26;20083;-80
2021/01/23 13:06:54;;;;;;;2.95;1.35;;;;;;;13.05;66.84;98534.44;5322606;26;20335;-79
2021/01/23 13:09:20;;;;;;;1.60;0.80;;;;;;;12.83;68.08;98539.84;5342220;26;20060;-79
2021/01/23 13:11:46;;;;;;;2.45;1.20;;;;;;;13.16;68.45;98526.91;5341977;26;20595;-80
2021/01/23 13:14:13;;;;;;;3.03;0.90;;;;;;;13.02;66.98;98539.84;5342109;26;20342;-79
2021/01/23 13:16:40;;;;;;;4.00;0.98;;;;;;;13.06;68.16;98538.81;5341960;26;20068;-80
2021/01/23 13:19:08;;;;;;;4.43;1.35;;;;;;;13.02;66.92;98545.13;5342317;26;20118;-80
2021/01/23 13:21:34;;;;;;;4.18;1.75;;;;;;;12.90;68.21;98545.69;5342181;26;20066;-80
2021/01/23 13:24:01;;;;;;;1.92;1.23;;;;;;;12.84;66.78;98536.28;5341845;26;20068;-80
2021/01/23 13:26:29;;;;;;;2.85;1.25;;;;;;;12.94;66.46;98540.22;5342375;26;20068;-80
2021/01/23 13:29:01;;;;;;;2.95;1.60;;;;;;;12.84;66.76;98553.87;5342213;26;20092;-81
2021/01/23 13:31:30;;;;;;;3.97;1.52;;;;;;;13.40;65.21;98558.38;5342070;26;20049;-80
2021/01/23 13:33:57;;;;;;;2.90;1.37;;;;;;;13.31;66.38;98545.63;5341860;26;20060;-80
2021/01/23 13:36:23;;;;;;;3.33;1.92;;;;;;;12.87;68.00;98551.94;5341861;26;20112;-80
2021/01/23 13:38:50;;;;;;;5.87;1.80;;;;;;;12.60;68.20;98537.37;5341948;26;20069;-80
2021/01/23 13:41:16;;;;;;;2.70;1.55;;;;;;;13.48;64.62;98536.94;5341688;26;20052;-82
2021/01/23 13:43:43;;;;;;;2.53;1.67;;;;;;;13.25;65.63;98533.56;5341866;26;20052;-80
2021/01/23 13:46:09;;;;;;;2.65;1.52;;;;;;;13.10;66.37;98539.53;5341972;26;20064;-81
2021/01/23 13:48:47;;;;;;;2.92;1.62;;;;;;;13.19;65.74;98539.09;5322124;26;21029;-81
2021/01/23 13:51:31;;;;;;;5.10;2.17;;;;;;;12.47;68.27;98539.66;5322774;26;20057;-81
2021/01/23 13:54:50;;;;;;;;;;;;;;;;;;;;;
2021/01/23 13:57:28;;;;;;;5.10;2.15;;;;;;;13.65;64.77;98529.06;5342064;26;20140;-83
2021/01/23 13:59:57;;;;;;;3.87;1.90;;;;;;;12.83;67.10;98529.31;5322388;26;20064;-80
2021/01/23 14:02:27;;;;;;;2.75;1.70;;;;;;;13.06;65.44;98524.75;5321767;26;20443;-81
2021/01/23 14:04:54;;;;;;;3.40;2.15;;;;;;;13.16;66.17;98516.34;5322336;26;20100;-81
2021/01/23 14:07:21;;;;;;;4.95;2.47;;;;;;;12.85;67.27;98516.91;5341869;26;20061;-82
2021/01/23 14:13:17;;;;;;;8.07;2.60;;;;;;;13.24;66.54;98512.53;5249681;26;20119;-81
2021/01/23 14:15:43;;;;;;;3.62;1.85;;;;;;;12.70;67.87;98517.56;5321801;26;20140;-81
2021/01/23 14:18:10;;;;;;;3.83;1.83;;;;;;;12.69;67.90;98526.41;5341521;26;20175;-80
2021/01/23 14:20:37;;;;;;;3.92;2.17;;;;;;;12.98;66.69;98532.19;5342011;26;20068;-81
2021/01/23 14:23:04;;;;;;;4.15;2.08;;;;;;;13.00;66.67;98523.28;5321751;26;20091;-82
2021/01/23 14:25:32;;;;;;;4.25;2.10;;;;;;;12.52;67.98;98513.97;5341800;26;20139;-81
2021/01/23 14:27:58;;;;;;;4.53;1.90;;;;;;;12.78;67.52;98506.72;5341660;26;20501;-83
2021/01/23 14:30:25;;;;;;;5.12;2.30;;;;;;;13.51;64.97;98515.66;5341907;26;20090;-81
2021/01/23 14:32:51;;;;;;;3.42;1.62;;;;;;;12.73;67.14;98513.06;5341283;26;20131;-81
2021/01/23 14:35:17;;;;;;;3.53;2.28;;;;;;;13.27;65.76;98507.13;5341637;26;20079;-81
2021/01/23 14:37:44;;;;;;;2.53;1.55;;;;;;;13.67;64.39;98518.41;5341902;26;20171;-81
2021/01/23 14:40:12;;;;;;;5.22;2.80;;;;;;;13.88;63.92;98517.38;5341527;26;20076;-81
2021/01/23 14:42:39;;;;;;;8.85;4.85;;;;;;;13.99;63.85;98522.13;5341761;26;20071;-81
2021/01/23 14:45:07;;;;;;;27.80;16.35;;;;;;;14.19;63.58;98524.63;5321554;26;20135;-81
2021/01/23 14:47:34;;;;;;;31.42;21.08;;;;;;;14.23;63.54;98520.03;5341606;26;20057;-81
2021/01/23 14:50:01;;;;;;;31.02;22.50;;;;;;;13.78;65.57;98519.59;5341345;26;20087;-81
2021/01/23 14:52:29;;;;;;;43.20;29.70;;;;;;;13.74;65.85;98518.06;5321819;26;20139;-82
2021/01/23 14:54:56;;;;;;;13.93;7.90;;;;;;;13.35;67.36;98529.59;5341369;26;20065;-80
2021/01/23 14:57:22;;;;;;;9.80;5.22;;;;;;;13.63;65.00;98512.44;5341503;26;20091;-81
2021/01/23 14:59:48;;;;;;;5.47;2.92;;;;;;;12.99;66.29;98507.50;5341218;26;20107;-83
2021/01/23 15:02:15;;;;;;;4.50;2.10;;;;;;;12.65;67.94;98525.69;5341194;26;20052;-80
2021/01/23 15:04:41;;;;;;;5.93;2.55;;;;;;;13.00;67.01;98531.19;5341226;26;20624;-80
2021/01/23 15:07:08;;;;;;;3.35;2.03;;;;;;;13.15;65.72;98538.37;5341908;26;20057;-82
2021/01/23 15:09:34;;;;;;;27.00;17.02;;;;;;;13.00;66.75;98531.19;5342481;26;20331;-81
2021/01/23 15:12:00;;;;;;;32.40;22.62;;;;;;;12.01;71.52;98531.94;5342940;26;20083;-82
2021/01/23 15:14:27;;;;;;;24.85;15.25;;;;;;;12.95;67.67;98541.06;5321910;26;20057;-81
2021/01/23 15:16:53;;;;;;;18.15;11.75;;;;;;;12.72;68.05;98545.56;5342510;26;20071;-81
2021/01/23 15:19:22;;;;;;;13.52;8.13;;;;;;;12.93;67.25;98538.50;5342349;26;20074;-81
2021/01/23 15:21:48;;;;;;;11.40;7.32;;;;;;;13.25;65.98;98535.31;5342612;26;20061;-81
2021/01/23 15:24:15;;;;;;;17.45;13.65;;;;;;;13.42;65.30;98537.22;5342214;26;20053;-81
2021/01/23 15:26:43;;;;;;;18.45;10.82;;;;;;;13.36;65.59;98539.22;5342420;26;20076;-81
2021/01/23 15:29:10;;;;;;;13.73;8.20;;;;;;;11.38;71.08;98549.31;5342317;26;20071;-81
2021/01/23 15:31:36;;;;;;;7.70;4.30;;;;;;;11.02;72.83;98552.44;5342734;26;20071;-80
2021/01/23 15:34:03;;;;;;;8.27;4.93;;;;;;;9.75;74.09;98560.25;5342370;26;20152;-83
2021/01/23 15:36:30;;;;;;;11.05;4.90;;;;;;;9.74;72.68;98555.94;5342652;26;20061;-82
2021/01/23 15:38:57;;;;;;;8.80;5.05;;;;;;;9.04;74.12;98566.78;5342240;26;20418;-81
2021/01/23 15:41:24;;;;;;;8.27;4.97;;;;;;;9.57;72.85;98579.19;5342508;26;20048;-80
2021/01/23 15:43:51;;;;;;;8.65;4.45;;;;;;;9.62;71.63;98572.06;5340394;26;20115;-80
2021/01/23 15:46:17;;;;;;;11.45;6.72;;;;;;;9.71;70.62;98577.00;5342158;26;20076;-80
2021/01/23 15:48:45;;;;;;;11.27;7.15;;;;;;;9.63;70.09;98578.16;5342651;26;20069;-80
2021/01/23 15:51:11;;;;;;;12.93;8.65;;;;;;;8.56;74.08;98588.19;5341931;26;20098;-81
2021/01/23 15:53:38;;;;;;;14.68;10.15;;;;;;;8.27;75.82;98593.28;5342591;26;20072;-82
2021/01/23 15:56:04;;;;;;;13.55;7.32;;;;;;;8.29;75.63;98608.03;5342515;26;20108;-80
2021/01/23 15:58:31;;;;;;;10.73;6.53;;;;;;;7.59;77.49;98605.34;5342644;26;20102;-82
2021/01/23 16:00:57;;;;;;;10.70;6.65;;;;;;;7.59;77.42;98615.81;5342498;26;20117;-81
2021/01/23 16:03:25;;;;;;;12.63;7.28;;;;;;;7.10;78.27;98605.53;5342500;26;20065;-80
2021/01/23 16:05:51;;;;;;;10.07;7.10;;;;;;;7.08;78.57;98599.47;5342144;26;20123;-79
2021/01/23 16:08:17;;;;;;;11.35;7.53;;;;;;;7.05;78.19;98609.09;5342502;26;20151;-80
2021/01/23 16:10:44;;;;;;;9.57;6.28;;;;;;;7.10;77.94;98600.31;5342600;26;20111;-82
2021/01/23 16:13:11;;;;;;;9.15;6.15;;;;;;;6.87;78.61;98613.81;5342211;26;20049;-80
2021/01/23 16:15:40;;;;;;;7.95;4.72;;;;;;;6.75;78.97;98620.13;5342198;26;20064;-80
2021/01/23 16:18:09;;;;;;;10.60;7.87;;;;;;;6.58;78.38;98613.47;5322787;26;20084;-79
2021/01/23 16:20:38;;;;;;;15.23;9.43;;;;;;;6.64;78.75;98612.50;5342218;26;20106;-80
2021/01/23 16:23:08;;;;;;;12.52;8.35;;;;;;;6.88;77.87;98608.56;5342344;26;20358;-80
2021/01/23 16:25:35;;;;;;;9.55;6.28;;;;;;;6.66;78.18;98602.91;5342617;26;20416;-80
2021/01/23 16:28:03;;;;;;;11.80;7.18;;;;;;;6.45;78.90;98591.13;5342134;26;20083;-80
2021/01/23 16:30:32;;;;;;;10.93;6.07;;;;;;;6.54;77.74;98606.59;5342059;26;20053;-80
2021/01/23 16:32:58;;;;;;;14.77;7.72;;;;;;;6.82;76.96;98621.72;5342388;26;20075;-81
2021/01/23 16:35:25;;;;;;;13.73;7.85;;;;;;;6.42;77.84;98630.31;5342136;26;20115;-80
2021/01/23 16:37:52;;;;;;;15.60;9.20;;;;;;;6.63;77.44;98636.03;5304767;26;20106;-80
2021/01/23 16:40:22;;;;;;;13.90;7.65;;;;;;;6.72;76.73;98633.25;5342252;26;20389;-80
2021/01/23 16:42:50;;;;;;;15.45;10.13;;;;;;;6.85;76.26;98611.22;5322575;26;20061;-79
2021/01/23 16:45:18;;;;;;;9.98;7.22;;;;;;;7.00;75.50;98600.50;5342141;26;20073;-79
2021/01/23 16:47:48;;;;;;;8.57;5.80;;;;;;;6.20;77.65;98605.47;5322836;26;20060;-80
2021/01/23 16:50:15;;;;;;;11.27;7.15;;;;;;;6.36;76.88;98605.19;5342227;26;20109;-80
2021/01/23 16:52:41;;;;;;;11.02;8.10;;;;;;;6.59;76.10;98604.78;5341977;26;20083;-80
2021/01/23 16:55:08;;;;;;;10.57;7.30;;;;;;;6.37;77.27;98613.84;5342376;26;20102;-84
2021/01/23 16:57:36;;;;;;;11.98;7.10;;;;;;;6.76;75.37;98612.25;5342468;26;20060;-80
2021/01/23 17:00:13;;;;;;;11.80;7.37;;;;;;;6.74;75.11;98611.47;5341971;26;20076;-81
2021/01/23 17:02:40;;;;;;;14.40;8.30;;;;;;;6.97;73.93;98626.69;5342204;26;20068;-80
2021/01/23 17:05:07;;;;;;;12.75;9.23;;;;;;;7.16;73.39;98628.91;5341691;26;20422;-79
2021/01/23 17:07:34;;;;;;;12.75;8.85;;;;;;;7.59;71.97;98614.94;5341762;26;20071;-80
2021/01/23 17:10:01;;;;;;;12.82;7.70;;;;;;;6.80;74.15;98613.94;5341940;26;20391;-80
2021/01/23 17:12:28;;;;;;;11.30;6.87;;;;;;;6.81;73.77;98617.41;5321918;26;20059;-80
2021/01/23 17:14:55;;;;;;;9.60;5.82;;;;;;;6.73;73.97;98629.75;5342029;26;20096;-80
2021/01/23 17:17:23;;;;;;;11.32;7.78;;;;;;;6.91;73.63;98636.37;5342064;26;20059;-80
2021/01/23 17:19:50;;;;;;;9.18;6.15;;;;;;;7.39;72.07;98638.91;5342090;26;20048;-82
2021/01/23 17:22:18;;;;;;;7.47;4.50;;;;;;;6.92;73.47;98638.97;5341928;26;20108;-80
2021/01/23 17:24:45;;;;;;;11.80;6.20;;;;;;;6.65;74.19;98639.44;5322120;26;20108;-80
2021/01/23 17:27:11;;;;;;;8.20;5.55;;;;;;;6.47;75.10;98645.84;5342160;26;20060;-80
2021/01/23 17:29:38;;;;;;;14.98;8.85;;;;;;;7.03;73.41;98642.22;5341699;26;20163;-80
2021/01/23 17:32:05;;;;;;;7.37;5.12;;;;;;;6.64;74.48;98649.03;5342020;26;20067;-81
2021/01/23 17:34:32;;;;;;;11.35;7.60;;;;;;;6.75;74.42;98657.53;5341997;26;20060;-81
2021/01/23 17:36:58;;;;;;;10.35;8.05;;;;;;;6.86;73.50;98664.34;5341917;26;20536;-80
2021/01/23 17:39:25;;;;;;;9.40;6.97;;;;;;;7.13;72.87;98666.41;5341866;26;20103;-80
2021/01/23 17:41:51;;;;;;;11.18;9.18;;;;;;;7.79;70.09;98661.56;5341847;26;20066;-80
2021/01/23 17:44:17;;;;;;;8.73;6.03;;;;;;;7.55;70.55;98665.56;5342441;26;20053;-80
2021/01/23 17:46:44;;;;;;;9.60;6.85;;;;;;;7.35;71.01;98660.75;5342080;26;20076;-80
2021/01/23 17:49:11;;;;;;;15.10;8.35;;;;;;;7.69;70.17;98655.66;5341830;26;20754;-79
2021/01/23 17:51:37;;;;;;;16.62;9.70;;;;;;;6.81;72.79;98656.56;5341880;26;20547;-81
2021/01/23 17:54:04;;;;;;;15.88;9.32;;;;;;;6.72;73.72;98654.97;5341761;26;20117;-81
2021/01/23 17:56:30;;;;;;;9.00;6.28;;;;;;;6.79;73.39;98642.69;5341623;26;20120;-80
2021/01/23 17:58:57;;;;;;;11.02;6.15;;;;;;;6.62;73.76;98640.41;5341892;26;20468;-80
2021/01/23 18:01:23;;;;;;;10.43;7.00;;;;;;;6.36;74.86;98622.59;5322156;26;20142;-80
2021/01/23 18:03:51;;;;;;;21.62;13.20;;;;;;;6.25;75.04;98611.47;5342098;26;20414;-83
2021/01/23 18:06:17;;;;;;;16.80;11.10;;;;;;;6.38;74.98;98620.78;5341781;26;20057;-80
2021/01/23 18:08:44;;;;;;;15.10;9.32;;;;;;;6.36;74.84;98612.16;5341710;26;20151;-80
2021/01/23 18:11:11;;;;;;;12.00;8.50;;;;;;;6.40;74.38;98629.47;5341856;26;20044;-80
2021/01/23 18:13:38;;;;;;;13.38;7.57;;;;;;;6.71;73.13;98619.34;5341858;26;20064;-80
2021/01/23 18:16:06;;;;;;;8.32;6.30;;;;;;;6.68;72.87;98622.00;5341900;26;20107;-79
2021/01/23 18:18:33;;;;;;;10.48;7.78;;;;;;;6.63;73.20;98625.59;5341812;26;20048;-80
2021/01/23 18:20:59;;;;;;;6.85;5.60;;;;;;;6.86;72.39;98612.97;5341765;26;20059;-80
2021/01/23 18:23:26;;;;;;;13.25;7.87;;;;;;;6.16;74.72;98609.88;5341511;26;20052;-81
2021/01/23 18:25:52;;;;;;;9.80;6.45;;;;;;;6.82;71.96;98606.97;5341319;26;20057;-80
2021/01/23 18:28:19;;;;;;;14.15;8.20;;;;;;;6.36;72.95;98618.22;5341608;26;20052;-80
2021/01/23 18:30:45;;;;;;;10.65;6.93;;;;;;;6.35;73.47;98619.13;5341346;26;20056;-80
2021/01/23 18:33:11;;;;;;;13.15;8.80;;;;;;;6.96;71.17;98608.41;5341527;26;20075;-80
2021/01/23 18:35:38;;;;;;;12.52;7.80;;;;;;;6.85;71.30;98611.22;5341806;26;20166;-81
2021/01/23 18:38:04;;;;;;;9.10;6.37;;;;;;;6.79;71.40;98621.78;5341408;26;20111;-79
2021/01/23 18:40:32;;;;;;;17.17;10.70;;;;;;;6.12;73.48;98618.66;5341715;26;20232;-80
2021/01/23 18:42:59;;;;;;;13.40;9.13;;;;;;;6.72;71.57;98609.75;5322324;26;20111;-80
2021/01/23 18:45:25;;;;;;;13.52;8.93;;;;;;;6.57;71.57;98606.53;5342795;26;20115;-82
2021/01/23 18:47:51;;;;;;;12.70;8.93;;;;;;;6.20;73.09;98602.84;5342372;26;20478;-79
2021/01/23 18:50:19;;;;;;;12.45;9.23;;;;;;;6.53;71.91;98601.41;5342681;26;20083;-81
2021/01/23 18:52:45;;;;;;;13.20;9.38;;;;;;;6.06;73.42;98598.75;5342724;26;20118;-80
2021/01/23 18:55:12;;;;;;;9.27;6.57;;;;;;;6.43;72.34;98603.31;5342286;26;20060;-80
2021/01/23 18:57:39;;;;;;;14.30;10.05;;;;;;;6.36;72.45;98604.31;5342447;26;20407;-80
2021/01/23 19:00:07;;;;;;;13.88;10.35;;;;;;;6.53;71.59;98614.44;5342772;26;20062;-82
2021/01/23 19:02:33;;;;;;;15.82;10.63;;;;;;;6.83;70.52;98619.09;5322502;26;20103;-80
2021/01/23 19:05:00;;;;;;;13.65;9.18;;;;;;;7.14;69.34;98612.41;5342472;26;20453;-80
2021/01/23 19:07:27;;;;;;;20.85;12.07;;;;;;;6.69;71.02;98602.84;5342714;26;20056;-81
2021/01/23 19:09:53;;;;;;;22.58;16.55;;;;;;;6.97;69.94;98597.06;5342290;26;20128;-80
2021/01/23 19:12:20;;;;;;;18.17;13.70;;;;;;;6.95;69.85;98597.13;5342671;26;20076;-80
2021/01/23 19:14:46;;;;;;;14.75;9.30;;;;;;;6.69;70.74;98588.94;5342266;26;20064;-81
2021/01/23 19:17:13;;;;;;;11.90;8.35;;;;;;;6.44;71.56;98586.78;5342457;26;20115;-80
2021/01/23 19:19:39;;;;;;;14.45;10.18;;;;;;;6.54;71.39;98590.94;5342300;26;20072;-79
2021/01/23 19:22:06;;;;;;;13.73;9.55;;;;;;;6.31;72.41;98598.31;5342208;26;20407;-81
2021/01/23 19:24:33;;;;;;;16.35;12.10;;;;;;;6.27;72.58;98602.72;5342367;26;20114;-80
2021/01/23 19:27:02;;;;;;;19.08;12.82;;;;;;;6.35;72.36;98611.28;5342490;26;20087;-80
2021/01/23 19:29:29;;;;;;;19.87;10.70;;;;;;;6.68;71.38;98613.34;5342592;26;20110;-80
2021/01/23 19:31:57;;;;;;;17.10;10.98;;;;;;;6.27;72.67;98612.31;5342351;26;20075;-80